createdAt,value
2018-12-26T00:00:01.046Z,8.83
2018-12-26T00:02:13.189Z,15.87
2018-12-26T00:04:28.714Z,13.20
2018-12-26T00:06:39.439Z,15.10
2018-12-26T00:08:48.284Z,13.23
2018-12-26T00:10:58.674Z,8.83
2018-12-26T00:13:08.931Z,7.70
2018-12-26T00:15:17.202Z,12.13
2018-12-26T00:17:26.055Z,12.17
2018-12-26T00:19:34.619Z,9.43
2018-12-26T00:21:45.351Z,11.43
2018-12-26T00:23:55.342Z,8.17
2018-12-26T00:26:03.122Z,7.40
2018-12-26T00:28:10.902Z,12.73
2018-12-26T00:30:16.916Z,14.17
2018-12-26T00:32:25.477Z,10.80
2018-12-26T00:34:34.329Z,15.53
2018-12-26T00:36:41.827Z,10.23
2018-12-26T00:38:49.642Z,11.63
2018-12-26T00:40:58.674Z,6.50
2018-12-26T00:43:08.571Z,9.90
2018-12-26T00:45:17.718Z,11.03
2018-12-26T00:47:31.114Z,13.90
2018-12-26T00:49:40.231Z,12.43
2018-12-26T00:51:50.055Z,12.87
2018-12-26T00:53:59.432Z,9.37
2018-12-26T00:56:10.607Z,8.50
2018-12-26T00:58:25.310Z,13.93
2018-12-26T01:00:33.386Z,9.83
2018-12-26T01:02:44.171Z,7.73
2018-12-26T01:04:54.611Z,9.50
2018-12-26T01:07:03.497Z,14.83
2018-12-26T01:09:15.651Z,9.93
2018-12-26T01:11:24.338Z,13.37
2018-12-26T01:13:32.658Z,10.33
2018-12-26T01:15:45.004Z,11.83
2018-12-26T01:17:53.821Z,13.53
2018-12-26T01:20:02.687Z,10.93
2018-12-26T01:22:11.666Z,11.87
2018-12-26T01:24:21.303Z,7.70
2018-12-26T01:26:33.410Z,9.60
2018-12-26T01:28:42.511Z,11.93
2018-12-26T01:30:52.695Z,6.23
2018-12-26T01:33:05.081Z,8.30
2018-12-26T01:35:11.127Z,10.73
2018-12-26T01:37:20.148Z,10.83
2018-12-26T01:39:32.331Z,7.37
2018-12-26T01:41:44.614Z,12.87
2018-12-26T01:43:56.710Z,9.60
2018-12-26T01:46:05.564Z,12.60
2018-12-26T01:48:13.995Z,13.97
2018-12-26T01:50:23.942Z,7.10
2018-12-26T01:52:31.224Z,6.90
2018-12-26T01:54:36.994Z,11.63
2018-12-26T01:56:42.676Z,15.33
2018-12-26T01:58:55.751Z,8.27
2018-12-26T02:01:04.306Z,12.43
2018-12-26T02:03:11.181Z,7.07
2018-12-26T02:05:16.562Z,8.30
2018-12-26T02:07:25.767Z,10.40
2018-12-26T02:09:34.099Z,9.87
2018-12-26T02:11:43.158Z,10.93
2018-12-26T02:13:50.548Z,10.47
2018-12-26T02:16:02.268Z,5.10
2018-12-26T02:18:11.091Z,10.13
2018-12-26T02:20:17.426Z,10.97
2018-12-26T02:22:26.665Z,12.50
2018-12-26T02:24:35.723Z,11.03
2018-12-26T02:26:45.127Z,8.57
2018-12-26T02:28:55.526Z,8.87
2018-12-26T02:31:05.647Z,7.60
2018-12-26T02:33:15.787Z,12.93
2018-12-26T02:35:27.708Z,14.30
2018-12-26T02:37:35.564Z,5.73
2018-12-26T02:39:41.326Z,9.07
2018-12-26T02:41:46.516Z,6.97
2018-12-26T02:43:51.662Z,10.80
2018-12-26T02:45:59.963Z,7.10
2018-12-26T02:48:09.543Z,6.60
2018-12-26T02:50:17.491Z,11.77
2018-12-26T02:52:29.503Z,12.13
2018-12-26T02:54:39.063Z,7.20
2018-12-26T02:56:49.149Z,11.90
2018-12-26T02:58:58.727Z,10.17
2018-12-26T03:01:06.560Z,6.53
2018-12-26T03:03:15.945Z,9.37
2018-12-26T03:05:23.314Z,6.90
2018-12-26T03:07:30.878Z,7.80
2018-12-26T03:09:37.239Z,9.17
2018-12-26T03:11:46.856Z,13.33
2018-12-26T03:13:56.783Z,4.53
2018-12-26T03:16:06.175Z,12.87
2018-12-26T03:18:15.049Z,8.00
2018-12-26T03:20:25.620Z,11.83
2018-12-26T03:22:34.120Z,9.10
2018-12-26T03:24:44.103Z,9.07
2018-12-26T03:26:56.449Z,7.90
2018-12-26T03:29:01.911Z,10.83
2018-12-26T03:31:08.928Z,7.60
2018-12-26T03:33:13.721Z,8.17
2018-12-26T03:35:27.782Z,12.37
2018-12-26T03:37:34.436Z,7.13
2018-12-26T03:39:40.894Z,9.07
2018-12-26T03:41:49.547Z,9.57
2018-12-26T03:43:59.446Z,11.80
2018-12-26T03:46:12.924Z,9.40
2018-12-26T03:48:27.493Z,10.57
2018-12-26T03:50:37.399Z,10.30
2018-12-26T03:52:42.965Z,7.40
2018-12-26T03:54:48.947Z,8.70
2018-12-26T03:56:55.145Z,12.67
2018-12-26T03:59:05.843Z,7.07
2018-12-26T04:01:13.847Z,6.30
2018-12-26T04:03:22.223Z,10.53
2018-12-26T04:05:29.058Z,6.13
2018-12-26T04:07:39.786Z,12.00
2018-12-26T04:09:47.102Z,9.50
2018-12-26T04:11:52.946Z,10.20
2018-12-26T04:13:58.791Z,8.23
2018-12-26T04:16:04.072Z,4.73
2018-12-26T04:18:13.425Z,12.10
2018-12-26T04:20:22.734Z,7.40
2018-12-26T04:22:33.786Z,7.23
2018-12-26T04:24:42.847Z,10.20
2018-12-26T04:26:53.074Z,10.67
2018-12-26T04:29:02.088Z,11.17
2018-12-26T04:31:09.329Z,7.87
2018-12-26T04:33:15.723Z,10.37
2018-12-26T04:35:28.807Z,12.50
2018-12-26T04:37:38.472Z,9.33
2018-12-26T04:39:49.739Z,9.57
2018-12-26T04:42:01.610Z,9.07
2018-12-26T04:44:09.991Z,9.07
2018-12-26T04:46:22.566Z,12.27
2018-12-26T04:48:32.211Z,9.57
2018-12-26T04:50:37.740Z,9.87
2018-12-26T04:52:48.518Z,11.70
2018-12-26T04:55:01.004Z,17.30
2018-12-26T04:57:11.816Z,11.63
2018-12-26T04:59:21.271Z,9.40
2018-12-26T05:01:30.236Z,13.97
2018-12-26T05:03:39.094Z,13.43
2018-12-26T05:05:47.924Z,9.50
2018-12-26T05:07:59.447Z,14.00
2018-12-26T05:10:07.743Z,11.83
2018-12-26T05:12:16.707Z,10.47
2018-12-26T05:14:27.019Z,14.33
2018-12-26T05:16:35.955Z,5.57
2018-12-26T05:18:44.999Z,9.70
2018-12-26T05:20:55.050Z,20.20
2018-12-26T05:23:02.994Z,7.50
2018-12-26T05:25:10.759Z,8.07
2018-12-26T05:27:20.951Z,11.50
2018-12-26T05:29:32.586Z,12.80
2018-12-26T05:31:38.915Z,14.33
2018-12-26T05:33:43.684Z,11.53
2018-12-26T05:35:48.839Z,10.10
2018-12-26T05:37:53.720Z,11.67
2018-12-26T05:40:02.160Z,12.63
2018-12-26T05:42:16.027Z,8.53
2018-12-26T05:44:24.935Z,16.27
2018-12-26T05:46:34.792Z,8.17
2018-12-26T05:48:43.617Z,12.20
2018-12-26T05:50:49.926Z,10.07
2018-12-26T05:52:59.313Z,9.70
2018-12-26T05:55:09.760Z,13.13
2018-12-26T05:57:17.396Z,13.73
2018-12-26T05:59:24.631Z,11.80
2018-12-26T06:01:31.453Z,15.80
2018-12-26T06:03:37.302Z,16.87
2018-12-26T06:05:42.202Z,9.97
2018-12-26T06:07:50.582Z,12.57
2018-12-26T06:10:03.947Z,10.60
2018-12-26T06:12:12.407Z,10.53
2018-12-26T06:14:20.394Z,10.53
2018-12-26T06:16:29.496Z,10.90
2018-12-26T06:18:35.448Z,13.90
2018-12-26T06:20:41.714Z,8.37
2018-12-26T06:22:49.944Z,12.60
2018-12-26T06:24:56.939Z,8.60
2018-12-26T06:27:07.318Z,14.57
2018-12-26T06:29:13.962Z,14.43
2018-12-26T06:31:19.183Z,7.87
2018-12-26T06:33:26.487Z,12.97
2018-12-26T06:35:35.443Z,9.73
2018-12-26T06:37:45.393Z,11.30
2018-12-26T06:39:52.715Z,13.40
2018-12-26T06:42:01.690Z,12.87
2018-12-26T06:44:12.811Z,15.93
2018-12-26T06:46:21.191Z,14.60
2018-12-26T06:48:30.250Z,10.80
2018-12-26T06:50:37.623Z,12.80
2018-12-26T06:52:46.446Z,10.10
2018-12-26T06:54:55.208Z,7.10
2018-12-26T06:57:03.658Z,12.60
2018-12-26T06:59:11.594Z,12.40
2018-12-26T07:01:23.307Z,10.73
2018-12-26T07:03:31.674Z,12.50
2018-12-26T07:05:41.707Z,10.20
2018-12-26T07:07:50.686Z,14.80
2018-12-26T07:09:59.860Z,14.13
2018-12-26T07:12:08.974Z,14.80
2018-12-26T07:14:17.951Z,10.80
2018-12-26T07:16:27.110Z,13.40
2018-12-26T07:18:35.987Z,11.67
2018-12-26T07:20:46.143Z,9.17
2018-12-26T07:22:57.270Z,9.47
2018-12-26T07:25:04.583Z,9.17
2018-12-26T07:27:14.602Z,13.67
2018-12-26T07:29:24.067Z,15.73
2018-12-26T07:31:32.989Z,11.63
2018-12-26T07:33:42.927Z,10.17
2018-12-26T07:35:50.063Z,10.83
2018-12-26T07:38:01.017Z,15.50
2018-12-26T07:40:12.007Z,15.03
2018-12-26T07:42:23.263Z,9.20
2018-12-26T07:44:32.583Z,15.90
2018-12-26T07:46:43.287Z,14.63
2018-12-26T07:48:52.876Z,9.57
2018-12-26T07:51:02.630Z,10.00
2018-12-26T07:53:11.418Z,16.70
2018-12-26T07:55:18.929Z,13.10
2018-12-26T07:57:26.902Z,8.90
2018-12-26T07:59:37.744Z,10.60
2018-12-26T08:01:43.878Z,10.60
2018-12-26T08:03:52.887Z,13.43
2018-12-26T08:06:01.448Z,13.30
2018-12-26T08:08:09.961Z,15.90
2018-12-26T08:10:17.878Z,11.70
2018-12-26T08:12:28.049Z,13.67
2018-12-26T08:14:36.807Z,16.13
2018-12-26T08:16:47.334Z,10.33
2018-12-26T08:18:57.096Z,16.10
2018-12-26T08:21:04.911Z,13.80
2018-12-26T08:23:14.088Z,12.47
2018-12-26T08:25:23.959Z,14.23
2018-12-26T08:27:34.759Z,17.13
2018-12-26T08:29:46.100Z,15.33
2018-12-26T08:31:56.715Z,10.47
2018-12-26T08:34:08.024Z,15.63
2018-12-26T08:36:17.310Z,18.90
2018-12-26T08:38:26.183Z,14.53
2018-12-26T08:40:35.847Z,7.57
2018-12-26T08:42:46.567Z,10.57
2018-12-26T08:44:54.085Z,15.67
2018-12-26T08:47:00.556Z,10.07
2018-12-26T08:49:05.814Z,10.90
2018-12-26T08:51:10.894Z,19.77
2018-12-26T08:53:17.930Z,22.30
2018-12-26T08:55:23.660Z,13.47
2018-12-26T08:57:33.402Z,10.87
2018-12-26T08:59:45.499Z,12.13
2018-12-26T09:01:53.479Z,15.33
2018-12-26T09:04:05.352Z,12.00
2018-12-26T09:06:14.526Z,16.03
2018-12-26T09:08:24.295Z,13.17
2018-12-26T09:10:36.894Z,14.93
2018-12-26T09:12:45.686Z,11.77
2018-12-26T09:14:53.702Z,14.60
2018-12-26T09:17:00.210Z,11.83
2018-12-26T09:19:06.199Z,15.97
2018-12-26T09:21:16.190Z,15.47
2018-12-26T09:23:24.759Z,12.80
2018-12-26T09:25:31.830Z,18.00
2018-12-26T09:27:44.319Z,12.00
2018-12-26T09:29:54.087Z,15.27
2018-12-26T09:32:02.802Z,11.93
2018-12-26T09:34:08.915Z,12.80
2018-12-26T09:36:17.210Z,12.47
2018-12-26T09:38:28.041Z,15.17
2018-12-26T09:40:33.130Z,17.47
2018-12-26T09:42:38.935Z,17.87
2018-12-26T09:44:44.363Z,15.43
2018-12-26T09:46:52.758Z,10.57
2018-12-26T09:48:58.931Z,12.37
2018-12-26T09:51:10.615Z,11.53
2018-12-26T09:53:21.350Z,15.20
2018-12-26T09:55:30.363Z,20.60
2018-12-26T09:57:43.241Z,13.97
2018-12-26T09:59:51.816Z,17.97
2018-12-26T10:02:00.795Z,14.57
2018-12-26T10:04:09.702Z,17.47
2018-12-26T10:06:18.863Z,17.47
2018-12-26T10:08:32.275Z,15.30
2018-12-26T10:10:39.607Z,16.17
2018-12-26T10:12:48.519Z,14.87
2018-12-26T10:15:02.301Z,19.17
2018-12-26T10:17:09.734Z,13.70
2018-12-26T10:19:21.158Z,22.40
2018-12-26T10:21:29.148Z,9.63
2018-12-26T10:23:40.022Z,16.07
2018-12-26T10:25:48.233Z,12.10
2018-12-26T10:27:56.119Z,16.77
2018-12-26T10:30:08.102Z,17.93
2018-12-26T10:32:19.769Z,15.47
2018-12-26T10:34:31.243Z,10.50
2018-12-26T10:36:39.159Z,17.17
2018-12-26T10:38:45.300Z,16.10
2018-12-26T10:40:50.963Z,15.93
2018-12-26T10:42:59.535Z,16.37
2018-12-26T10:45:06.382Z,16.77
2018-12-26T10:47:14.390Z,17.07
2018-12-26T10:49:26.623Z,15.37
2018-12-26T10:51:36.486Z,13.67
2018-12-26T10:53:56.282Z,11.93
2018-12-26T10:56:03.167Z,11.83
2018-12-26T10:58:11.091Z,16.07
2018-12-26T11:00:19.144Z,15.77
2018-12-26T11:02:29.885Z,20.53
2018-12-26T11:04:37.406Z,16.60
2018-12-26T11:06:42.755Z,19.70
2018-12-26T11:08:52.140Z,20.17
2018-12-26T11:11:00.871Z,16.83
2018-12-26T11:13:10.730Z,15.53
2018-12-26T11:15:19.590Z,16.13
2018-12-26T11:17:26.463Z,22.00
2018-12-26T11:19:36.195Z,16.03
2018-12-26T11:21:46.183Z,11.50
2018-12-26T11:23:56.151Z,14.07
2018-12-26T11:26:06.679Z,13.53
2018-12-26T11:28:16.826Z,17.70
2018-12-26T11:30:23.886Z,13.97
2018-12-26T11:32:34.698Z,18.97
2018-12-26T11:34:47.102Z,10.80
2018-12-26T11:36:57.985Z,17.67
2018-12-26T11:39:05.850Z,16.80
2018-12-26T11:41:14.534Z,12.77
2018-12-26T11:43:20.578Z,11.17
2018-12-26T11:45:30.678Z,16.80
2018-12-26T11:47:42.738Z,12.13
2018-12-26T11:49:56.363Z,14.67
2018-12-26T11:52:07.311Z,13.47
2018-12-26T11:54:16.237Z,17.27
2018-12-26T11:56:24.604Z,14.20
2018-12-26T11:58:32.927Z,11.10
2018-12-26T12:00:37.775Z,13.63
2018-12-26T12:02:45.788Z,14.83
2018-12-26T12:04:52.973Z,10.27
2018-12-26T12:06:57.797Z,13.20
2018-12-26T12:09:04.819Z,13.87
2018-12-26T12:11:12.251Z,16.30
2018-12-26T12:13:21.209Z,16.67
2018-12-26T12:15:31.407Z,10.90
2018-12-26T12:17:39.808Z,14.40
2018-12-26T12:19:47.799Z,14.53
2018-12-26T12:22:06.227Z,12.10
2018-12-26T12:24:14.647Z,9.23
2018-12-26T12:26:20.051Z,12.17
2018-12-26T12:28:26.811Z,16.40
2018-12-26T12:30:36.470Z,14.93
2018-12-26T12:32:44.597Z,15.73
2018-12-26T12:34:56.611Z,16.60
2018-12-26T12:37:10.911Z,13.37
2018-12-26T12:39:17.038Z,12.57
2018-12-26T12:41:23.935Z,10.27
2018-12-26T12:43:33.881Z,10.87
2018-12-26T12:45:44.742Z,14.30
2018-12-26T12:47:54.150Z,9.70
2018-12-26T12:50:02.143Z,18.60
2018-12-26T12:52:12.043Z,11.67
2018-12-26T12:54:21.942Z,14.43
2018-12-26T12:56:27.307Z,12.60
2018-12-26T12:58:36.000Z,12.20
2018-12-26T13:00:44.914Z,14.87
2018-12-26T13:03:00.379Z,15.60
2018-12-26T13:05:04.297Z,13.37
2018-12-26T13:07:13.737Z,10.37
2018-12-26T13:09:22.945Z,12.70
2018-12-26T13:11:32.818Z,10.97
2018-12-26T13:13:42.131Z,7.57
2018-12-26T13:15:51.214Z,6.27
2018-12-26T13:17:58.793Z,10.47
2018-12-26T13:20:10.067Z,12.60
2018-12-26T13:22:17.714Z,11.20
2018-12-26T13:24:26.735Z,12.70
2018-12-26T13:26:38.689Z,15.53
2018-12-26T13:28:47.000Z,9.17
2018-12-26T13:31:04.894Z,12.27
2018-12-26T13:33:05.914Z,10.90
2018-12-26T13:35:15.850Z,10.73
2018-12-26T13:37:24.843Z,7.03
2018-12-26T13:39:33.747Z,14.53
2018-12-26T13:41:41.663Z,10.10
2018-12-26T13:43:50.663Z,12.67
2018-12-26T13:45:59.458Z,10.63
2018-12-26T13:48:08.799Z,11.53
2018-12-26T13:50:17.481Z,13.37
2018-12-26T13:52:29.512Z,10.50
2018-12-26T13:54:37.855Z,16.80
2018-12-26T13:56:47.219Z,11.13
2018-12-26T13:58:58.170Z,11.27
2018-12-26T14:01:09.256Z,9.47
2018-12-26T14:03:21.011Z,13.90
2018-12-26T14:05:34.640Z,14.23
2018-12-26T14:07:44.703Z,11.90
2018-12-26T14:09:53.059Z,12.20
2018-12-26T14:12:01.988Z,12.40
2018-12-26T14:14:11.114Z,9.27
2018-12-26T14:16:23.287Z,8.07
2018-12-26T14:18:32.615Z,14.90
2018-12-26T14:20:40.926Z,9.77
2018-12-26T14:22:48.923Z,9.13
2018-12-26T14:24:58.247Z,12.33
2018-12-26T14:27:07.144Z,8.53
2018-12-26T14:29:14.410Z,10.77
2018-12-26T14:31:21.961Z,9.33
2018-12-26T14:33:32.806Z,15.37
2018-12-26T14:35:44.616Z,8.10
2018-12-26T14:37:53.668Z,9.17
2018-12-26T14:40:03.575Z,12.93
2018-12-26T14:42:13.707Z,10.50
2018-12-26T14:44:25.107Z,13.23
2018-12-26T14:46:36.855Z,7.73
2018-12-26T14:48:45.075Z,10.10
2018-12-26T14:50:52.273Z,9.13
2018-12-26T14:53:04.335Z,8.20
2018-12-26T14:55:11.554Z,7.43
2018-12-26T14:57:21.387Z,12.30
2018-12-26T14:59:29.351Z,9.70
2018-12-26T15:01:35.214Z,12.10
2018-12-26T15:03:41.963Z,9.40
2018-12-26T15:05:50.419Z,7.93
2018-12-26T15:08:01.263Z,9.07
2018-12-26T15:10:09.343Z,7.47
2018-12-26T15:12:22.464Z,7.93
2018-12-26T15:14:33.797Z,9.73
2018-12-26T15:16:41.598Z,9.33
2018-12-26T15:18:50.557Z,13.20
2018-12-26T15:20:56.647Z,7.63
2018-12-26T15:23:03.073Z,6.23
2018-12-26T15:25:08.449Z,8.83
2018-12-26T15:27:15.860Z,7.63
2018-12-26T15:29:26.181Z,6.13
2018-12-26T15:31:34.887Z,7.13
2018-12-26T15:33:43.404Z,8.77
2018-12-26T15:35:52.134Z,8.83
2018-12-26T15:38:01.291Z,7.37
2018-12-26T15:40:09.877Z,8.03
2018-12-26T15:42:17.399Z,9.63
2018-12-26T15:44:26.351Z,9.20
2018-12-26T15:46:33.840Z,8.97
2018-12-26T15:48:40.687Z,11.30
2018-12-26T15:50:47.990Z,9.27
2018-12-26T15:52:53.828Z,9.33
2018-12-26T15:54:59.427Z,5.47
2018-12-26T15:57:10.123Z,6.43
2018-12-26T15:59:17.843Z,7.00
2018-12-26T16:01:26.866Z,7.77
2018-12-26T16:03:33.239Z,8.60
2018-12-26T16:05:41.686Z,5.63
2018-12-26T16:07:51.046Z,7.63
2018-12-26T16:10:02.782Z,7.87
2018-12-26T16:12:10.007Z,9.87
2018-12-26T16:14:21.266Z,5.90
2018-12-26T16:16:30.086Z,13.20
2018-12-26T16:18:39.122Z,11.47
2018-12-26T16:20:44.268Z,7.23
2018-12-26T16:22:51.629Z,14.27
2018-12-26T16:25:01.739Z,7.17
2018-12-26T16:27:12.103Z,7.50
2018-12-26T16:29:19.782Z,10.90
2018-12-26T16:31:31.648Z,6.97
2018-12-26T16:33:37.064Z,10.30
2018-12-26T16:35:46.130Z,13.03
2018-12-26T16:38:01.305Z,9.73
2018-12-26T16:40:02.587Z,10.63
2018-12-26T16:42:12.538Z,13.03
2018-12-26T16:44:21.832Z,14.87
2018-12-26T16:46:28.727Z,18.27
2018-12-26T16:48:37.654Z,12.90
2018-12-26T16:50:46.713Z,18.23
2018-12-26T16:52:56.619Z,19.10
2018-12-26T16:55:05.051Z,20.60
2018-12-26T16:57:14.838Z,15.43
2018-12-26T16:59:25.127Z,10.97
2018-12-26T17:01:34.909Z,21.60
2018-12-26T17:03:45.847Z,16.57
2018-12-26T17:05:55.974Z,20.87
2018-12-26T17:08:06.054Z,16.47
2018-12-26T17:10:18.233Z,13.90
2018-12-26T17:12:27.318Z,16.13
2018-12-26T17:14:35.526Z,18.70
2018-12-26T17:16:43.618Z,15.47
2018-12-26T17:18:49.432Z,12.70
2018-12-26T17:20:57.787Z,16.27
2018-12-26T17:23:09.391Z,18.17
2018-12-26T17:25:19.834Z,14.77
2018-12-26T17:27:28.550Z,18.93
2018-12-26T17:29:36.911Z,18.47
2018-12-26T17:31:45.199Z,13.17
2018-12-26T17:33:56.391Z,17.27
2018-12-26T17:36:03.262Z,16.07
2018-12-26T17:38:11.123Z,12.50
2018-12-26T17:40:20.621Z,18.10
2018-12-26T17:42:28.295Z,14.53
2018-12-26T17:44:35.815Z,15.80
2018-12-26T17:46:47.112Z,17.00
2018-12-26T17:48:58.612Z,19.63
2018-12-26T17:51:10.706Z,12.57
2018-12-26T17:53:52.811Z,17.47
2018-12-26T17:56:12.350Z,17.13
2018-12-26T17:58:20.307Z,18.67
2018-12-26T18:00:43.910Z,19.63
2018-12-26T18:02:55.550Z,17.53
2018-12-26T18:05:03.221Z,21.73
2018-12-26T18:07:10.751Z,21.33
2018-12-26T18:09:15.690Z,24.47
2018-12-26T18:11:24.659Z,21.50
2018-12-26T18:13:30.302Z,14.90
2018-12-26T18:15:38.002Z,20.53
2018-12-26T18:17:49.066Z,15.17
2018-12-26T18:19:57.738Z,19.00
2018-12-26T18:22:06.927Z,16.93
2018-12-26T18:24:12.622Z,18.87
2018-12-26T18:26:20.184Z,17.37
2018-12-26T18:28:34.076Z,17.90
2018-12-26T18:30:40.987Z,17.23
2018-12-26T18:32:50.823Z,20.10
2018-12-26T18:35:01.767Z,18.43
2018-12-26T18:37:12.637Z,19.80
2018-12-26T18:39:22.503Z,17.17
2018-12-26T18:41:33.245Z,19.50
2018-12-26T18:43:42.594Z,20.13
2018-12-26T18:45:54.379Z,21.07
2018-12-26T18:48:04.298Z,20.83
2018-12-26T18:50:13.710Z,20.67
2018-12-26T18:52:23.628Z,20.57
2018-12-26T18:54:35.567Z,22.87
2018-12-26T18:56:45.690Z,20.50
2018-12-26T18:58:54.635Z,26.67
2018-12-26T19:01:04.534Z,31.47
2018-12-26T19:03:15.155Z,23.17
2018-12-26T19:05:22.807Z,22.80
2018-12-26T19:07:28.177Z,20.67
2018-12-26T19:09:35.014Z,23.37
2018-12-26T19:11:41.242Z,30.60
2018-12-26T19:13:51.293Z,25.07
2018-12-26T19:16:00.083Z,22.80
2018-12-26T19:18:07.063Z,25.07
2018-12-26T19:20:16.339Z,26.73
2018-12-26T19:22:25.170Z,23.53
2018-12-26T19:24:36.104Z,29.93
2018-12-26T19:26:42.686Z,23.27
2018-12-26T19:28:49.058Z,21.43
2018-12-26T19:30:55.759Z,25.87
2018-12-26T19:33:05.806Z,25.07
2018-12-26T19:35:17.970Z,26.40
2018-12-26T19:39:46.197Z,25.30
2018-12-26T19:41:52.845Z,26.17
2018-12-26T19:44:00.043Z,28.33
2018-12-26T19:46:09.959Z,23.30
2018-12-26T19:48:18.319Z,21.03
2018-12-26T19:50:30.694Z,23.57
2018-12-26T19:52:41.818Z,22.37
2018-12-26T19:54:50.666Z,24.87
2018-12-26T19:56:59.707Z,22.07
2018-12-26T19:59:10.512Z,23.07
2018-12-26T20:01:16.647Z,25.57
2018-12-26T20:03:28.651Z,23.27
2018-12-26T20:05:40.379Z,23.80
2018-12-26T20:07:47.751Z,26.30
2018-12-26T20:09:55.156Z,25.80
2018-12-26T20:12:07.347Z,28.37
2018-12-26T20:14:17.195Z,24.97
2018-12-26T20:16:26.365Z,31.63
2018-12-26T20:18:31.538Z,27.63
2018-12-26T20:20:39.270Z,30.07
2018-12-26T20:22:54.047Z,22.90
2018-12-26T20:25:01.429Z,25.27
2018-12-26T20:27:09.276Z,24.13
2018-12-26T20:29:18.308Z,27.30
2018-12-26T20:31:28.470Z,29.83
2018-12-26T20:33:34.318Z,33.80
2018-12-26T20:35:43.413Z,29.53
2018-12-26T20:37:51.742Z,40.20
2018-12-26T20:39:58.099Z,37.47
2018-12-26T20:42:07.059Z,34.47
2018-12-26T20:44:16.967Z,33.40
2018-12-26T20:46:24.386Z,39.73
2018-12-26T20:48:30.518Z,33.30
2018-12-26T20:50:39.442Z,39.73
2018-12-26T20:52:48.411Z,35.37
2018-12-26T20:54:57.435Z,38.57
2018-12-26T20:57:06.490Z,39.90
2018-12-26T20:59:14.669Z,47.07
2018-12-26T21:01:21.735Z,42.00
2018-12-26T21:03:30.681Z,51.73
2018-12-26T21:05:36.572Z,43.27
2018-12-26T21:07:45.138Z,37.23
2018-12-26T21:09:55.471Z,42.93
2018-12-26T21:12:03.542Z,39.37
2018-12-26T21:14:13.414Z,42.30
2018-12-26T21:16:21.415Z,41.17
2018-12-26T21:18:31.276Z,34.50
2018-12-26T21:20:41.179Z,39.40
2018-12-26T21:22:53.038Z,40.37
2018-12-26T21:25:02.163Z,42.17
2018-12-26T21:27:12.634Z,45.57
2018-12-26T21:29:19.304Z,37.37
2018-12-26T21:31:26.823Z,43.60
2018-12-26T21:33:34.819Z,44.30
2018-12-26T21:35:43.118Z,47.00
2018-12-26T21:37:51.978Z,44.27
2018-12-26T21:40:02.962Z,44.80
2018-12-26T21:42:12.207Z,44.17
2018-12-26T21:44:20.999Z,54.27
2018-12-26T21:46:29.274Z,43.13
2018-12-26T21:48:38.923Z,50.67
2018-12-26T21:50:47.905Z,43.13
2018-12-26T21:52:55.578Z,52.57
2018-12-26T21:55:01.722Z,44.40
2018-12-26T21:57:14.347Z,45.40
2018-12-26T21:59:22.999Z,46.83
2018-12-26T22:01:30.602Z,40.20
2018-12-26T22:03:41.959Z,39.77
2018-12-26T22:05:52.855Z,46.40
2018-12-26T22:07:57.980Z,41.13
2018-12-26T22:10:07.888Z,43.10
2018-12-26T22:12:16.749Z,35.57
2018-12-26T22:14:28.200Z,40.27
2018-12-26T22:16:38.246Z,39.80
2018-12-26T22:18:45.975Z,34.30
2018-12-26T22:20:54.559Z,39.03
2018-12-26T22:23:02.090Z,36.43
2018-12-26T22:25:08.279Z,36.97
2018-12-26T22:27:19.966Z,39.50
2018-12-26T22:29:30.855Z,37.87
2018-12-26T22:31:39.770Z,38.67
2018-12-26T22:33:50.758Z,40.33
2018-12-26T22:36:01.701Z,41.47
2018-12-26T22:38:13.567Z,36.77
2018-12-26T22:40:25.998Z,35.57
2018-12-26T22:42:31.815Z,38.93
2018-12-26T22:44:36.981Z,41.43
2018-12-26T22:46:42.720Z,40.00
2018-12-26T22:48:47.616Z,39.97
2018-12-26T22:50:57.979Z,39.70
2018-12-26T22:53:05.896Z,44.03
2018-12-26T22:55:17.703Z,37.60
2018-12-26T22:57:25.843Z,36.83
2018-12-26T22:59:35.731Z,38.40
2018-12-26T23:01:47.036Z,36.47
2018-12-26T23:03:52.739Z,34.53
2018-12-26T23:05:59.336Z,32.80
2018-12-26T23:08:07.849Z,30.47
2018-12-26T23:10:16.052Z,35.87
2018-12-26T23:12:24.882Z,35.83
2018-12-26T23:14:33.722Z,36.90
2018-12-26T23:16:41.366Z,38.70
2018-12-26T23:18:49.239Z,35.37
2018-12-26T23:20:57.654Z,34.03
2018-12-26T23:23:05.227Z,38.77
2018-12-26T23:25:12.070Z,35.17
2018-12-26T23:27:23.111Z,35.70
2018-12-26T23:29:32.364Z,33.70
2018-12-26T23:31:42.098Z,31.70
2018-12-26T23:33:51.958Z,34.80
2018-12-26T23:36:02.119Z,36.67
2018-12-26T23:38:10.006Z,31.93
2018-12-26T23:40:18.067Z,38.47
2018-12-26T23:42:26.007Z,37.67
2018-12-26T23:44:35.527Z,32.87
2018-12-26T23:46:44.908Z,34.07
2018-12-26T23:48:55.049Z,32.03
2018-12-26T23:51:04.335Z,34.73
2018-12-26T23:53:14.338Z,34.57
2018-12-26T23:55:23.194Z,37.73
2018-12-26T23:57:32.142Z,36.97
2018-12-26T23:59:41.014Z,34.23
